Latest Weather Observations for Bellambi

IDN60901

Issued at 2:05 pm EST Saturday 30 August 2014 (issued every 10 minutes, with the page automatically refreshed every 10 minutes)

About weather observations | Map of Sydney area stations | Latest observations for Sydney area | Other Formats
Station Details ID: 068228 Name: BELLAMBI AWS Lat: -34.37 Lon: 150.93 Height: 10.0 m
Data from the previous 72 hours. | See also: Recent months at Bellambi
Date/Time
EST
Tmp

°C
App
Tmp
°C
Dew
Point
°C
Rel
Hum
%
Delta-T

°C
Wind Press
QNH
hPa
Press
MSL
hPa
Rain
since
9 am
mm
Dir
 
Spd
km/h
Gust
km/h
Spd
kts
Gust
kts
30/02:00pm 16.3 10.9 12.3 77 2.2 SSW 32 43 17 23 - - 0.2
30/01:30pm 16.3 11.8 12.7 79 2.0 SSW 28 39 15 21 - - 0.2
30/01:00pm 15.5 10.1 12.3 81 1.7 SSW 32 43 17 23 - - 0.2
30/12:30pm 15.1 9.2 12.4 84 1.5 SSW 35 44 19 24 - - 0.2
30/12:00pm 14.7 8.6 11.7 82 1.6 SSW 35 46 19 25 - - 0.0
30/11:30am 13.9 7.8 11.6 86 1.2 SSW 35 46 19 25 - - 0.0
30/11:00am 14.2 8.0 11.4 83 1.5 SSW 35 43 19 23 - - 0.0
30/10:30am 14.8 8.0 10.8 77 2.1 SSW 37 48 20 26 - - 0.0
30/10:00am 14.6 7.4 10.4 76 2.2 SSW 39 50 21 27 - - 0.0
30/09:30am 14.4 7.1 10.2 76 2.2 SSW 39 57 21 31 - - 0.0
30/09:22am 14.2 6.8 9.8 75 2.3 SSW 39 57 21 31 - - 0.0
30/09:00am 14.1 6.8 10.1 77 2.1 SSW 39 56 21 30 - - 0.8
30/08:43am 13.7 7.1 9.9 78 2.0 SSW 35 54 19 29 - - 0.8
30/08:30am 13.9 6.5 9.9 77 2.1 SSW 39 52 21 28 - - 0.8
30/08:00am 13.4 7.1 9.6 78 1.9 SSW 33 43 18 23 - - 0.8
30/07:30am 12.7 6.8 9.0 78 1.9 SW 30 39 16 21 - - 0.8
30/07:00am 12.8 6.5 8.9 77 2.0 SW 32 44 17 24 - - 0.8
30/06:34am 12.7 6.4 8.8 77 2.0 SW 32 50 17 27 - - 0.8
30/06:30am 12.8 6.3 8.9 77 2.0 SW 33 50 18 27 - - 0.8
30/06:03am 12.8 6.4 8.7 76 2.0 SW 32 50 17 27 - - 0.8
30/06:00am 12.9 6.4 8.8 76 2.1 SW 33 50 18 27 - - 0.8
30/05:30am 12.8 5.8 8.3 74 2.2 SSW 35 48 19 26 - - 0.8
30/05:00am 12.8 6.2 8.7 76 2.0 SSW 33 44 18 24 - - 0.8
30/04:30am 13.3 5.6 8.8 74 2.3 SSW 39 48 21 26 - - 0.8
30/04:00am 13.4 4.9 8.7 73 2.4 SSW 43 56 23 30 - - 0.8
30/03:34am 13.6 6.5 8.2 70 2.7 SSW 35 54 19 29 - - 0.8
30/03:30am 13.8 7.3 8.8 72 2.5 SSW 33 44 18 24 - - 0.8
30/03:00am 13.7 7.1 8.5 71 2.6 SSW 33 46 18 25 - - 0.8
30/02:30am 14.0 5.5 8.4 69 2.8 SSW 43 61 23 33 - - 0.8
30/02:24am 14.0 5.7 7.8 66 3.1 SSW 41 61 22 33 - - 0.8
30/02:00am 14.2 5.7 8.6 69 2.8 SSW 43 57 23 31 - - 0.8
30/01:30am 14.0 7.2 7.8 66 3.1 SSW 33 44 18 24 - - 0.8
30/01:00am 13.9 7.3 7.9 67 3.0 SSW 32 43 17 23 - - 0.8
30/12:30am 13.8 7.1 8.0 68 2.9 SSW 33 44 18 24 - - 0.8
30/12:00am 13.1 7.8 6.9 66 3.0 SW 24 35 13 19 - - 0.8
 
Date/Time
EST
Tmp

°C
App
Tmp
°C
Dew
Point
°C
Rel
Hum
%
Delta-T

°C
Wind Press
QNH
hPa
Press
MSL
hPa
Rain
since
9 am
mm
Dir
 
Spd
km/h
Gust
km/h
Spd
kts
Gust
kts
29/11:30pm 13.4 7.8 7.0 65 3.1 SW 26 33 14 18 - - 0.8
29/11:00pm 13.3 7.1 6.2 62 3.4 SW 28 43 15 23 - - 0.8
29/10:30pm 13.8 7.9 7.6 66 3.0 SSW 28 37 15 20 - - 0.8
29/10:00pm 13.4 7.4 7.0 65 3.1 SW 28 43 15 23 - - 0.8
29/09:30pm 13.9 7.3 7.7 66 3.1 SSW 32 44 17 24 - - 0.8
29/09:00pm 14.0 7.4 8.4 69 2.8 SSW 33 48 18 26 - - 0.8
29/08:30pm 14.1 7.7 8.5 69 2.8 SSW 32 46 17 25 - - 0.8
29/08:00pm 14.6 7.4 9.0 69 2.9 SSW 37 50 20 27 - - 0.8
29/07:30pm 14.5 7.3 9.3 71 2.7 SSW 37 48 20 26 - - 0.8
29/07:00pm 14.3 7.6 9.5 73 2.5 SSW 35 50 19 27 - - 0.8
29/06:30pm 14.7 6.9 9.7 72 2.6 SSW 41 54 22 29 - - 0.8
29/06:00pm 14.3 8.8 10.5 78 2.0 SSW 30 37 16 20 - - 0.8
29/05:30pm 14.1 8.8 9.9 76 2.2 SW 28 41 15 22 - - 0.8
29/05:00pm 14.5 9.8 10.5 77 2.1 SSW 26 37 14 20 - - 0.8
29/04:30pm 15.0 9.5 10.4 74 2.4 SSW 30 39 16 21 - - 0.8
29/04:00pm 14.9 6.6 10.1 73 2.5 S 44 56 24 30 - - 0.8
29/03:30pm 14.6 8.1 11.6 82 1.6 S 37 48 20 26 - - 0.8
29/03:12pm 14.7 6.8 10.7 77 2.1 S 43 50 23 27 - - 0.6
29/03:00pm 15.3 9.4 10.5 73 2.5 SSW 32 41 17 22 - - 0.6
29/02:30pm 15.0 8.8 10.0 72 2.6 SSW 33 44 18 24 - - 0.6
29/02:00pm 14.5 6.4 10.9 79 1.9 S 44 56 24 30 - - 0.6
29/01:46pm 14.9 6.4 10.5 75 2.3 S 46 59 25 32 - - 0.6
29/01:30pm 15.9 10.7 10.2 69 3.0 SSW 28 39 15 21 - - 0.6
29/01:00pm 15.1 10.8 10.7 75 2.3 SW 24 35 13 19 - - 0.6
29/12:30pm 15.4 10.2 11.6 78 2.0 SSW 30 39 16 21 - - 0.6
29/12:00pm 14.8 11.5 12.8 88 1.1 SSW 22 32 12 17 - - 0.6
29/11:30am 12.7 5.0 10.2 85 1.3 S 41 46 22 25 - - 0.2
29/11:16am 14.0 6.6 10.0 77 2.1 SSE 39 50 21 27 - - 0.0
29/11:00am 15.5 9.3 10.1 70 2.8 SSW 33 46 18 25 - - 0.0
29/10:47am 15.1 8.9 9.9 71 2.7 S 33 54 18 29 - - 0.0
29/10:30am 15.7 10.8 10.0 69 3.0 S 26 33 14 18 - - 0.0
29/10:00am 14.8 10.2 9.8 72 2.6 SSW 24 30 13 16 - - 0.0
29/09:30am 14.7 11.2 10.3 75 2.3 SW 19 26 10 14 - - 0.0
29/09:00am 14.2 9.7 10.0 76 2.2 SW 24 33 13 18 - - 0.8
29/08:30am 13.7 8.4 9.7 77 2.1 SSW 28 39 15 21 - - 0.8
29/08:00am 13.5 9.9 9.9 79 1.9 SSW 19 24 10 13 - - 0.8
29/07:30am 12.4 8.8 8.5 77 1.9 SW 17 22 9 12 - - 0.8
29/07:00am 12.0 8.1 8.5 79 1.7 WSW 19 24 10 13 - - 0.8
29/06:30am 11.8 7.9 8.5 80 1.6 SW 19 24 10 13 - - 0.8
29/06:00am 11.4 8.1 8.1 80 1.6 SW 15 20 8 11 - - 0.8
29/05:30am 11.3 7.9 7.8 79 1.7 SW 15 19 8 10 - - 0.8
29/05:00am 11.9 8.6 8.0 77 1.9 SW 15 20 8 11 - - 0.8
29/04:30am 12.1 8.4 8.0 76 2.0 SW 17 22 9 12 - - 0.8
29/04:00am 12.0 8.3 7.9 76 2.0 SW 17 20 9 11 - - 0.8
29/03:30am 12.1 8.4 8.0 76 2.0 WSW 17 20 9 11 - - 0.8
29/03:00am 11.8 8.1 7.9 77 1.9 WSW 17 20 9 11 - - 0.8
29/02:30am 11.9 8.2 8.0 77 1.9 SW 17 20 9 11 - - 0.8
29/02:00am 11.8 8.5 7.9 77 1.9 SW 15 20 8 11 - - 0.8
29/01:30am 12.0 8.3 7.9 76 2.0 SW 17 20 9 11 - - 0.8
29/01:00am 12.0 8.6 7.7 75 2.1 SW 15 20 8 11 - - 0.8
29/12:30am 12.2 8.5 8.1 76 2.0 WSW 17 22 9 12 - - 0.8
29/12:00am 12.0 8.7 7.9 76 2.0 SW 15 20 8 11 - - 0.8
 
Date/Time
EST
Tmp

°C
App
Tmp
°C
Dew
Point
°C
Rel
Hum
%
Delta-T

°C
Wind Press
QNH
hPa
Press
MSL
hPa
Rain
since
9 am
mm
Dir
 
Spd
km/h
Gust
km/h
Spd
kts
Gust
kts
28/11:30pm 11.8 8.4 7.7 76 2.0 WSW 15 19 8 10 - - 0.8
28/11:00pm 11.9 9.0 8.0 77 1.9 SW 13 19 7 10 - - 0.8
28/10:30pm 12.0 8.7 8.1 77 1.9 SW 15 19 8 10 - - 0.8
28/10:00pm 12.3 9.1 8.4 77 1.9 SW 15 20 8 11 - - 0.8
28/09:30pm 12.3 8.8 8.8 79 1.7 SW 17 26 9 14 - - 0.8
28/09:00pm 12.8 9.3 8.7 76 2.0 SW 17 26 9 14 - - 0.8
28/08:30pm 12.8 9.6 8.3 74 2.2 SW 15 22 8 12 - - 0.8
28/08:00pm 12.7 9.0 7.8 72 2.4 WSW 17 22 9 12 - - 0.8
28/07:30pm 13.1 9.4 7.8 70 2.6 SW 17 20 9 11 - - 0.8
28/07:00pm 15.3 9.6 8.5 64 3.4 S 28 33 15 18 - - 0.8
28/06:30pm 15.4 9.8 8.6 64 3.5 S 28 35 15 19 - - 0.8
28/06:00pm 15.4 9.7 8.4 63 3.5 S 28 33 15 18 - - 0.8
28/05:30pm 15.5 10.4 9.2 66 3.2 SSE 26 33 14 18 - - 0.8
28/05:00pm 15.6 10.5 9.3 66 3.2 S 26 35 14 19 - - 0.8
28/04:30pm 15.6 10.3 9.7 68 3.1 SSE 28 35 15 19 - - 0.8
28/04:00pm 16.2 10.4 9.6 65 3.4 S 30 41 16 22 - - 0.6
28/03:30pm 16.0 10.2 10.7 71 2.8 S 32 39 17 21 - - 0.6
28/03:00pm 15.9 10.4 11.9 77 2.2 S 32 39 17 21 - - 0.6
28/02:30pm 15.7 9.9 11.5 76 2.3 S 33 43 18 23 - - 0.6
28/02:00pm 16.7 11.4 11.2 70 3.0 S 30 37 16 20 - - 0.6
28/01:30pm 15.9 11.4 11.5 75 2.4 SSE 26 32 14 17 - - 0.6
28/01:00pm 15.0 12.6 12.5 85 1.4 SSW 17 24 9 13 - - 0.6
28/12:30pm 14.6 10.6 11.7 83 1.6 S 24 32 13 17 - - 0.4
28/12:00pm 16.0 10.5 12.0 77 2.2 S 32 43 17 23 - - 0.2
28/11:30am 15.8 10.7 11.8 77 2.2 S 30 35 16 19 - - 0.2
28/11:00am 15.7 10.6 11.9 78 2.1 S 30 33 16 18 - - 0.2
28/10:30am 15.5 10.1 12.1 80 1.9 S 32 37 17 20 - - 0.2
28/10:00am 15.3 9.8 11.7 79 1.9 S 32 35 17 19 - - 0.0
28/09:30am 15.1 11.1 11.7 80 1.8 SSW 24 30 13 16 - - 0.0
28/09:00am 14.2 10.9 11.7 85 1.3 SW 20 28 11 15 - - 3.4
28/08:30am 13.8 10.6 12.0 89 1.0 SW 20 30 11 16 - - 3.4
28/08:00am 13.0 9.6 11.4 90 0.8 SW 20 28 11 15 - - 3.4
28/07:30am 12.3 8.7 10.7 90 0.8 SW 20 28 11 15 - - 3.4
28/07:00am 12.0 8.4 10.4 90 0.8 SW 20 26 11 14 - - 3.4
28/06:30am 11.8 8.3 10.2 90 0.8 SW 19 24 10 13 - - 3.2
28/06:00am 11.8 8.3 10.2 90 0.8 SW 19 24 10 13 - - 3.2
28/05:30am 11.9 8.2 10.1 89 0.9 SW 20 26 11 14 - - 3.2
28/05:00am 12.1 7.7 10.5 90 0.8 SW 24 30 13 16 - - 3.0
28/04:30am 12.1 8.5 10.5 90 0.8 SW 20 30 11 16 - - 3.0
28/04:00am 12.0 8.0 10.6 91 0.7 SW 22 32 12 17 - - 3.0
28/03:30am 12.0 8.0 10.6 91 0.7 SW 22 30 12 16 - - 3.0
28/03:00am 11.9 7.9 10.3 90 0.8 SW 22 32 12 17 - - 3.0
28/02:30am 12.2 8.6 10.4 89 0.9 SW 20 26 11 14 - - 3.0
28/02:00am 12.3 7.9 10.5 89 0.9 SW 24 32 13 17 - - 2.2
28/01:30am 12.4 8.4 10.6 89 0.9 SW 22 30 12 16 - - 1.6
28/01:00am 12.3 8.3 10.5 89 0.9 SW 22 32 12 17 - - 1.4
28/12:30am 12.3 8.9 10.4 88 1.0 SW 19 26 10 14 - - 1.4
28/12:00am 12.9 7.9 10.8 87 1.1 SSW 28 41 15 22 - - 1.4
 
Date/Time
EST
Tmp

°C
App
Tmp
°C
Dew
Point
°C
Rel
Hum
%
Delta-T

°C
Wind Press
QNH
hPa
Press
MSL
hPa
Rain
since
9 am
mm
Dir
 
Spd
km/h
Gust
km/h
Spd
kts
Gust
kts
27/11:30pm 12.5 8.7 9.7 83 1.4 SW 20 32 11 17 - - 1.4
27/11:00pm 12.9 8.9 9.2 78 1.9 SW 20 28 11 15 - - 1.2
27/10:30pm 12.8 9.0 9.1 78 1.9 SW 19 26 10 14 - - 1.2
27/10:00pm 12.7 8.9 9.2 79 1.8 SW 19 24 10 13 - - 1.2
27/09:30pm 12.7 9.0 9.3 80 1.7 WSW 19 24 10 13 - - 1.2
27/09:00pm 12.7 9.3 9.2 79 1.8 SW 17 24 9 13 - - 1.2
27/08:30pm 14.4 8.1 9.8 74 2.4 S 33 43 18 23 - - 1.2
27/08:00pm 14.4 8.8 11.6 83 1.5 S 32 39 17 21 - - 1.2
27/07:30pm 12.7 9.3 9.2 79 1.8 SW 17 22 9 12 - - 1.2
27/07:00pm 12.7 9.3 9.3 80 1.7 SW 17 20 9 11 - - 1.2
27/06:30pm 13.1 9.8 9.7 80 1.7 SW 17 24 9 13 - - 1.2
27/06:00pm 14.3 9.1 10.3 77 2.1 SSW 28 37 15 20 - - 1.2
27/05:30pm 14.8 8.9 11.0 78 2.0 SSW 33 39 18 21 - - 1.2
27/05:00pm 15.6 9.6 10.8 73 2.5 S 33 44 18 24 - - 1.2
27/04:30pm 14.5 10.1 11.6 83 1.6 SSW 26 35 14 19 - - 1.2
27/04:00pm 14.6 8.0 11.2 80 1.8 SSW 37 46 20 25 - - 0.8
27/03:30pm 15.3 8.0 11.5 78 2.0 S 41 46 22 25 - - 0.6
27/03:00pm 15.4 8.2 12.0 80 1.8 S 41 50 22 27 - - 0.6
27/02:30pm 14.3 8.2 11.8 85 1.3 SSW 35 43 19 23 - - 0.6

Latest Capital City Observations: Canberra | Sydney | Melbourne | Brisbane | Adelaide | Perth | Hobart | Darwin

Other Formats:

Comma delimited format used in spreadsheet applications
http://www.bom.gov.au/fwo/IDN60901/IDN60901.94749.axf

JavaScript Object Notation format (JSON) in row-major order
http://www.bom.gov.au/fwo/IDN60901/IDN60901.94749.json